Terminal Aerodrome Forecast
Issued by NWS

Current Version | Previous Version | Text Only | Print | Product List | Glossary Off
Versions: 1 2 3 4 5 6 7 8 9 10 11 12 13 14 15 16 17 18 19 20 21 22 23 24 25 26 27

000
FTUS41 KILN 142300
TAFLCK
TAF
KLCK 142330Z 1500/1524 22004KT P6SM BKN025
     FM150900 17004KT 5SM BR OVC025
     FM151700 15007KT P6SM SCT030 BKN250
     FM152200 15008KT P6SM SCT050 BKN100=

USA.gov is the U.S. government's official web portal to all federal, state and local government web resources and services.